Time;durP1;ratioP1;P1;durP2;ratioP2;P2;SDS_P1;SDS_P2;PMS_P1;PMS_P2;Temp;Humidity;BMP_temperature;BMP_pressure;BME280_temperature;BME280_humidity;BME280_pressure;Samples;Min_cycle;Max_cycle;Signal;HPM_P1;HPM_P2
2022/06/15 00:00:00;;;;;;;;;;;12.20;99.90;;;;;;5020848;28;19917;-77
2022/06/15 00:02:25;;;;;;;;;;;12.10;99.90;;;;;;5003807;28;19964;-77
2022/06/15 00:04:51;;;;;;;;;;;12.20;99.90;;;;;;5048988;28;20003;-78
2022/06/15 00:07:16;;;;;;;;;;;12.10;99.90;;;;;;5012179;28;19921;-78
2022/06/15 00:09:42;;;;;;;;;;;12.10;99.90;;;;;;5012372;28;19917;-77
2022/06/15 00:12:08;;;;;;;;;;;12.00;99.90;;;;;;5028761;28;19922;-78
2022/06/15 00:14:34;;;;;;;;;;;12.00;99.90;;;;;;5046253;28;20290;-77
2022/06/15 00:16:59;;;;;;;;;;;12.00;99.90;;;;;;5031336;28;19917;-78
2022/06/15 00:19:25;;;;;;;;;;;12.10;99.90;;;;;;5012267;28;20370;-78
2022/06/15 00:21:51;;;;;;;;;;;12.00;99.90;;;;;;5038720;28;20390;-78
2022/06/15 00:24:16;;;;;;;;;;;11.90;99.90;;;;;;5028384;28;19926;-78
2022/06/15 00:26:42;;;;;;;;;;;11.90;99.90;;;;;;5044601;28;20259;-78
2022/06/15 00:29:08;;;;;;;;;;;11.80;99.90;;;;;;5012663;28;19925;-78
2022/06/15 00:31:33;;;;;;;;;;;11.80;99.90;;;;;;5028928;28;19925;-78
2022/06/15 00:33:59;;;;;;;;;;;11.70;99.90;;;;;;5024352;28;19921;-79
2022/06/15 00:36:24;;;;;;;;;;;11.70;99.90;;;;;;5031631;28;19917;-78
2022/06/15 00:38:54;;;;;;;;;;;11.70;99.90;;;;;;5031935;28;20366;-79
2022/06/15 00:41:26;;;;;;;;;;;11.60;99.90;;;;;;5048040;28;19921;-79
2022/06/15 00:43:51;;;;;;;;;;;11.60;99.90;;;;;;5014303;28;19917;-78
2022/06/15 00:46:32;;;;;;;;;;;11.60;99.90;;;;;;5037467;28;20349;-78
2022/06/15 00:49:00;;;;;;;;;;;11.60;99.90;;;;;;5028170;28;19918;-77
2022/06/15 00:51:26;;;;;;;;;;;11.60;99.90;;;;;;5034272;28;20267;-77
2022/06/15 00:53:53;;;;;;;;;;;11.60;99.90;;;;;;5030523;28;19927;-77
2022/06/15 00:56:19;;;;;;;;;;;11.70;99.90;;;;;;5016577;28;19918;-78
2022/06/15 00:58:47;;;;;;;;;;;11.70;99.90;;;;;;5045553;28;19991;-78
2022/06/15 01:01:13;;;;;;;;;;;11.80;99.90;;;;;;5023316;28;19997;-78
2022/06/15 01:03:38;;;;;;;;;;;11.80;99.90;;;;;;5047107;28;20055;-78
2022/06/15 01:06:10;;;;;;;;;;;11.70;99.90;;;;;;5046001;28;19918;-79
2022/06/15 01:08:40;;;;;;;;;;;11.80;99.90;;;;;;5047530;28;19917;-79
2022/06/15 01:11:08;;;;;;;;;;;11.70;99.90;;;;;;5027342;28;20353;-78
2022/06/15 01:13:49;;;;;;;;;;;11.70;99.90;;;;;;5011297;28;19957;-79
2022/06/15 01:16:35;;;;;;;;;;;11.60;99.90;;;;;;5033586;28;19924;-79
2022/06/15 01:19:04;;;;;;;;;;;11.60;99.90;;;;;;5009914;28;20477;-79
2022/06/15 01:21:49;;;;;;;;;;;11.60;99.90;;;;;;5011133;28;19917;-79
2022/06/15 01:24:28;;;;;;;;;;;11.70;99.90;;;;;;5027667;28;20337;-79
2022/06/15 01:27:01;;;;;;;;;;;11.80;99.90;;;;;;5011334;28;19925;-79
2022/06/15 01:29:47;;;;;;;;;;;11.80;99.90;;;;;;5011178;28;19922;-80
2022/06/15 01:32:16;;;;;;;;;;;11.80;99.90;;;;;;5008248;28;20374;-79
2022/06/15 01:34:47;;;;;;;;;;;11.80;99.90;;;;;;4996313;28;19922;-78
2022/06/15 01:37:21;;;;;;;;;;;11.90;99.90;;;;;;5010750;28;19917;-78
2022/06/15 01:39:59;;;;;;;;;;;11.90;99.90;;;;;;5010454;28;20428;-78
2022/06/15 01:42:24;;;;;;;;;;;11.90;99.90;;;;;;5027206;28;19967;-79
2022/06/15 01:44:56;;;;;;;;;;;11.90;99.90;;;;;;5010516;28;19961;-79
2022/06/15 01:47:23;;;;;;;;;;;11.80;99.90;;;;;;5027473;28;19957;-79
2022/06/15 01:49:50;;;;;;;;;;;11.70;99.90;;;;;;5010613;28;19986;-79
2022/06/15 01:52:16;;;;;;;;;;;11.70;99.90;;;;;;5010828;28;19917;-79
2022/06/15 01:54:45;;;;;;;;;;;11.70;99.90;;;;;;5028858;28;20329;-78
2022/06/15 01:57:11;;;;;;;;;;;11.60;99.90;;;;;;5030117;28;19983;-79
2022/06/15 01:59:43;;;;;;;;;;;11.70;99.90;;;;;;5027656;28;19922;-79
2022/06/15 02:02:15;;;;;;;;;;;11.70;99.90;;;;;;5030375;28;19925;-80
2022/06/15 02:04:59;;;;;;;;;;;11.70;99.90;;;;;;5004750;28;19948;-79
2022/06/15 02:07:24;;;;;;;;;;;11.70;99.90;;;;;;5027034;28;19918;-78
2022/06/15 02:09:59;;;;;;;;;;;11.70;99.90;;;;;;5026955;28;19925;-78
2022/06/15 02:12:32;;;;;;;;;;;11.70;99.90;;;;;;4993748;28;19917;-79
2022/06/15 02:14:59;;;;;;;;;;;11.70;99.90;;;;;;5009830;28;19929;-79
2022/06/15 02:17:25;;;;;;;;;;;11.70;99.90;;;;;;5027562;28;19917;-78
2022/06/15 02:19:53;;;;;;;;;;;11.60;99.90;;;;;;5029807;28;19987;-78
2022/06/15 02:22:20;;;;;;;;;;;11.60;99.90;;;;;;5046125;28;19968;-79
2022/06/15 02:24:49;;;;;;;;;;;11.60;99.90;;;;;;5046168;28;19918;-78
2022/06/15 02:27:15;;;;;;;;;;;11.70;99.90;;;;;;5029013;28;20434;-78
2022/06/15 02:29:43;;;;;;;;;;;11.60;99.90;;;;;;5027842;28;20028;-78
2022/06/15 02:32:10;;;;;;;;;;;11.70;99.90;;;;;;5046108;28;19921;-78
2022/06/15 02:34:35;;;;;;;;;;;11.60;99.90;;;;;;5013000;28;19921;-78
2022/06/15 02:37:01;;;;;;;;;;;11.60;99.90;;;;;;5029389;28;19918;-78
2022/06/15 02:39:26;;;;;;;;;;;11.50;99.90;;;;;;5028564;28;19921;-78
2022/06/15 02:41:56;;;;;;;;;;;11.50;99.90;;;;;;5012994;28;19917;-78
2022/06/15 02:44:21;;;;;;;;;;;11.50;99.90;;;;;;5019655;28;19925;-79
2022/06/15 02:46:48;;;;;;;;;;;11.40;99.90;;;;;;5002404;28;19922;-79
2022/06/15 02:49:14;;;;;;;;;;;11.40;99.90;;;;;;5028180;28;19968;-78
2022/06/15 02:51:48;;;;;;;;;;;11.40;99.90;;;;;;5028996;28;20408;-78
2022/06/15 02:54:18;;;;;;;;;;;11.40;99.90;;;;;;5025422;28;19948;-78
2022/06/15 02:56:43;;;;;;;;;;;11.40;99.90;;;;;;5011422;28;19918;-78
2022/06/15 02:59:09;;;;;;;;;;;11.50;99.90;;;;;;5006362;28;19924;-78
2022/06/15 03:01:35;;;;;;;;;;;11.50;99.90;;;;;;5009667;28;19924;-78
2022/06/15 03:04:00;;;;;;;;;;;11.50;99.90;;;;;;5039484;28;19918;-78
2022/06/15 03:06:27;;;;;;;;;;;11.40;99.90;;;;;;5026013;28;20024;-78
2022/06/15 03:08:53;;;;;;;;;;;11.50;99.90;;;;;;5025818;28;19924;-78
2022/06/15 03:11:19;;;;;;;;;;;11.40;99.90;;;;;;5025800;28;19925;-78
2022/06/15 03:13:44;;;;;;;;;;;11.40;99.90;;;;;;5041731;28;19918;-78
2022/06/15 03:16:10;;;;;;;;;;;11.30;99.90;;;;;;5021900;28;20370;-78
2022/06/15 03:18:35;;;;;;;;;;;11.30;99.90;;;;;;5031080;28;19917;-78
2022/06/15 03:21:02;;;;;;;;;;;11.30;99.90;;;;;;5042843;28;19917;-78
2022/06/15 03:23:29;;;;;;;;;;;11.20;99.90;;;;;;5029959;28;19924;-78
2022/06/15 03:25:55;;;;;;;;;;;11.20;99.90;;;;;;5013146;28;19949;-78
2022/06/15 03:28:20;;;;;;;;;;;11.20;99.90;;;;;;5026312;28;19917;-78
2022/06/15 03:30:46;;;;;;;;;;;11.20;99.90;;;;;;5048176;28;19925;-78
2022/06/15 03:33:12;;;;;;;;;;;11.10;99.90;;;;;;5015914;28;19918;-79
2022/06/15 03:35:39;;;;;;;;;;;11.10;99.90;;;;;;5013099;28;19997;-78
2022/06/15 03:38:08;;;;;;;;;;;11.10;99.90;;;;;;5018742;28;19917;-77
2022/06/15 03:40:34;;;;;;;;;;;11.00;99.90;;;;;;5049507;28;19925;-78
2022/06/15 03:43:00;;;;;;;;;;;11.00;99.90;;;;;;5048767;28;20444;-78
2022/06/15 03:45:26;;;;;;;;;;;11.00;99.90;;;;;;5032657;28;19917;-77
2022/06/15 03:47:51;;;;;;;;;;;11.00;99.90;;;;;;5000117;28;19940;-78
2022/06/15 03:50:17;;;;;;;;;;;11.00;99.90;;;;;;5030336;28;19921;-78
2022/06/15 03:52:42;;;;;;;;;;;11.00;99.90;;;;;;5032443;28;19917;-78
2022/06/15 03:55:08;;;;;;;;;;;10.90;99.90;;;;;;5032287;28;19921;-78
2022/06/15 03:57:34;;;;;;;;;;;11.00;99.90;;;;;;5031242;28;19917;-78
2022/06/15 03:59:59;;;;;;;;;;;10.90;99.90;;;;;;5030749;28;20059;-78
2022/06/15 04:02:25;;;;;;;;;;;11.00;99.90;;;;;;5049097;28;19944;-78
2022/06/15 04:04:50;;;;;;;;;;;11.00;99.90;;;;;;5028769;28;20008;-79
2022/06/15 04:10:00;;;;;;;;;;;11.00;99.90;;;;;;5029925;28;20397;-78
2022/06/15 04:12:25;;;;;;;;;;;11.10;99.90;;;;;;5041763;28;19953;-78
2022/06/15 04:14:51;;;;;;;;;;;11.20;99.90;;;;;;5032019;28;19922;-78
2022/06/15 04:17:18;;;;;;;;;;;11.20;99.90;;;;;;5013243;28;20412;-78
2022/06/15 04:19:43;;;;;;;;;;;11.20;99.90;;;;;;5004315;28;19988;-79
2022/06/15 04:22:09;;;;;;;;;;;11.20;99.90;;;;;;5043666;28;20019;-78
2022/06/15 04:24:34;;;;;;;;;;;11.20;99.90;;;;;;5015243;28;20409;-78
2022/06/15 04:27:00;;;;;;;;;;;11.20;99.90;;;;;;5015304;28;20313;-79
2022/06/15 04:29:26;;;;;;;;;;;11.30;99.90;;;;;;4997471;28;19917;-78
2022/06/15 04:31:51;;;;;;;;;;;11.30;99.90;;;;;;5031195;28;19917;-78
2022/06/15 04:34:17;;;;;;;;;;;11.30;99.90;;;;;;5030675;28;19925;-78
2022/06/15 04:36:43;;;;;;;;;;;11.40;99.90;;;;;;5010561;28;20381;-79
2022/06/15 04:39:10;;;;;;;;;;;11.40;99.90;;;;;;5012883;28;19967;-77
2022/06/15 04:41:37;;;;;;;;;;;11.40;99.90;;;;;;5031537;28;19947;-79
2022/06/15 04:44:04;;;;;;;;;;;11.50;99.90;;;;;;5013994;28;19967;-78
2022/06/15 04:46:31;;;;;;;;;;;11.60;99.90;;;;;;5012305;28;19925;-78
2022/06/15 04:48:56;;;;;;;;;;;11.60;99.90;;;;;;5013574;28;20366;-78
2022/06/15 04:51:23;;;;;;;;;;;11.70;99.90;;;;;;5039613;28;19921;-78
2022/06/15 04:53:49;;;;;;;;;;;11.80;99.90;;;;;;5014871;28;19917;-78
2022/06/15 04:56:15;;;;;;;;;;;11.80;99.90;;;;;;5023562;28;19917;-79
2022/06/15 04:58:43;;;;;;;;;;;11.90;99.90;;;;;;5012931;28;19917;-78
2022/06/15 05:01:11;;;;;;;;;;;11.90;99.90;;;;;;4997661;28;19918;-78
2022/06/15 05:03:37;;;;;;;;;;;11.90;99.90;;;;;;5040969;28;20004;-78
2022/06/15 05:06:09;;;;;;;;;;;12.00;99.90;;;;;;5011027;28;19924;-78
2022/06/15 05:08:35;;;;;;;;;;;12.00;99.90;;;;;;5042407;28;19925;-78
2022/06/15 05:11:00;;;;;;;;;;;12.10;99.90;;;;;;4999876;28;19925;-78
2022/06/15 05:13:26;;;;;;;;;;;12.20;99.90;;;;;;5027623;28;19924;-78
2022/06/15 05:15:52;;;;;;;;;;;12.30;99.90;;;;;;5045669;28;20381;-78
2022/06/15 05:18:17;;;;;;;;;;;12.30;99.90;;;;;;5031643;28;19940;-78
2022/06/15 05:20:43;;;;;;;;;;;12.40;99.90;;;;;;5022567;28;20280;-77
2022/06/15 05:23:12;;;;;;;;;;;12.40;99.90;;;;;;5029273;28;19921;-78
2022/06/15 05:25:37;;;;;;;;;;;12.60;99.90;;;;;;5046190;28;19985;-77
2022/06/15 05:28:05;;;;;;;;;;;12.60;99.90;;;;;;5029103;28;20397;-77
2022/06/15 05:30:30;;;;;;;;;;;12.70;99.90;;;;;;5012550;28;19917;-77
2022/06/15 05:32:56;;;;;;;;;;;12.70;99.90;;;;;;5035733;28;19918;-77
2022/06/15 05:35:21;;;;;;;;;;;12.80;99.90;;;;;;5024950;28;19929;-77
2022/06/15 05:37:47;;;;;;;;;;;12.80;99.90;;;;;;5046644;28;19922;-77
2022/06/15 05:40:12;;;;;;;;;;;12.90;99.90;;;;;;5028137;28;19921;-77
2022/06/15 05:42:38;;;;;;;;;;;13.10;99.90;;;;;;5003965;28;19925;-77
2022/06/15 05:45:04;;;;;;;;;;;13.10;99.90;;;;;;5023607;28;20067;-77
2022/06/15 05:47:30;;;;;;;;;;;13.30;99.90;;;;;;5009997;28;19963;-77
2022/06/15 05:49:55;;;;;;;;;;;13.50;99.90;;;;;;5046986;28;19917;-77
2022/06/15 05:52:21;;;;;;;;;;;13.70;99.90;;;;;;5046053;28;19917;-77
2022/06/15 05:54:46;;;;;;;;;;;13.90;99.90;;;;;;5045910;28;19926;-77
2022/06/15 05:57:15;;;;;;;;;;;14.00;99.90;;;;;;5046357;28;19917;-77
2022/06/15 05:59:41;;;;;;;;;;;14.30;99.90;;;;;;5046618;28;19945;-77
2022/06/15 06:02:08;;;;;;;;;;;14.30;99.90;;;;;;5012960;28;20444;-76
2022/06/15 06:04:33;;;;;;;;;;;14.50;99.90;;;;;;5012127;28;20285;-77
2022/06/15 06:06:59;;;;;;;;;;;14.50;99.90;;;;;;5030130;28;19917;-76
2022/06/15 06:09:24;;;;;;;;;;;14.50;99.90;;;;;;5028319;28;19917;-76
2022/06/15 06:11:50;;;;;;;;;;;14.60;99.90;;;;;;5026319;28;19964;-76
2022/06/15 06:14:15;;;;;;;;;;;14.60;99.90;;;;;;5034555;28;19972;-76
2022/06/15 06:16:40;;;;;;;;;;;14.60;99.90;;;;;;5010702;28;19917;-76
2022/06/15 06:19:06;;;;;;;;;;;14.60;99.90;;;;;;5043692;28;19921;-76
2022/06/15 06:21:31;;;;;;;;;;;14.70;99.90;;;;;;5029123;28;20023;-76
2022/06/15 06:23:57;;;;;;;;;;;14.70;99.90;;;;;;5013311;28;19963;-76
2022/06/15 06:26:24;;;;;;;;;;;14.90;99.90;;;;;;5004942;28;19917;-76
2022/06/15 06:28:50;;;;;;;;;;;15.00;99.90;;;;;;4999629;28;19918;-77
2022/06/15 06:31:19;;;;;;;;;;;15.10;99.90;;;;;;5046548;28;19918;-77
2022/06/15 06:33:45;;;;;;;;;;;15.30;99.90;;;;;;5012170;28;19917;-77
2022/06/15 06:36:14;;;;;;;;;;;15.40;99.90;;;;;;5012927;28;19947;-76
2022/06/15 06:38:40;;;;;;;;;;;15.70;99.90;;;;;;5028699;28;19921;-76
2022/06/15 06:41:05;;;;;;;;;;;15.70;99.90;;;;;;5010687;28;19921;-76
2022/06/15 06:43:31;;;;;;;;;;;15.80;99.90;;;;;;5028162;28;19921;-76
2022/06/15 06:45:57;;;;;;;;;;;15.80;99.90;;;;;;5046025;28;19992;-76
2022/06/15 06:48:22;;;;;;;;;;;15.90;99.90;;;;;;5028194;28;20011;-77
2022/06/15 06:50:48;;;;;;;;;;;16.00;99.90;;;;;;5011296;28;20007;-77
2022/06/15 06:53:14;;;;;;;;;;;16.10;99.90;;;;;;5045824;28;19917;-76
2022/06/15 06:55:39;;;;;;;;;;;16.30;99.90;;;;;;5045010;28;20369;-77
2022/06/15 06:58:05;;;;;;;;;;;16.50;99.90;;;;;;5044913;28;19918;-77
2022/06/15 07:00:31;;;;;;;;;;;16.60;99.90;;;;;;5029295;28;19981;-76
2022/06/15 07:03:01;;;;;;;;;;;16.80;99.90;;;;;;5045105;28;20348;-76
2022/06/15 07:05:26;;;;;;;;;;;16.90;99.90;;;;;;5012610;28;20421;-76
2022/06/15 07:07:52;;;;;;;;;;;17.00;99.90;;;;;;5011783;28;19917;-77
2022/06/15 07:10:18;;;;;;;;;;;17.10;99.90;;;;;;5029402;28;19922;-76
2022/06/15 07:12:43;;;;;;;;;;;17.20;99.90;;;;;;5010587;28;20012;-76
2022/06/15 07:15:10;;;;;;;;;;;17.20;99.90;;;;;;5011691;28;19933;-76
2022/06/15 07:17:36;;;;;;;;;;;17.30;99.90;;;;;;5012056;28;19918;-76
2022/06/15 07:20:02;;;;;;;;;;;17.30;99.90;;;;;;5011539;28;20372;-75
2022/06/15 07:22:28;;;;;;;;;;;17.40;99.90;;;;;;5011796;28;20384;-76
2022/06/15 07:24:53;;;;;;;;;;;17.50;99.90;;;;;;5028972;28;19923;-76
2022/06/15 07:27:19;;;;;;;;;;;17.50;99.90;;;;;;5028266;28;19917;-75
2022/06/15 07:29:46;;;;;;;;;;;17.60;99.90;;;;;;5012747;28;20021;-75
2022/06/15 07:32:13;;;;;;;;;;;17.70;99.90;;;;;;5027922;28;19922;-75
2022/06/15 07:34:38;;;;;;;;;;;17.70;99.90;;;;;;5011249;28;20401;-76
2022/06/15 07:37:04;;;;;;;;;;;17.80;99.90;;;;;;5045471;28;19964;-76
2022/06/15 07:39:29;;;;;;;;;;;17.80;99.90;;;;;;5011624;28;19980;-75
2022/06/15 07:41:56;;;;;;;;;;;18.00;99.90;;;;;;5028854;28;19924;-75
2022/06/15 07:44:22;;;;;;;;;;;18.00;99.90;;;;;;5044718;28;19968;-76
2022/06/15 07:46:47;;;;;;;;;;;18.10;99.90;;;;;;5012186;28;19960;-76
2022/06/15 07:52:03;;;;;;;;;;;17.90;99.90;;;;;;5004925;28;20328;-77
2022/06/15 07:54:28;;;;;;;;;;;17.90;99.90;;;;;;5019933;28;19976;-74
2022/06/15 07:56:54;;;;;;;;;;;17.90;99.90;;;;;;5031937;28;19922;-71
2022/06/15 07:59:20;;;;;;;;;;;17.90;99.90;;;;;;4984321;28;19917;-70
2022/06/15 08:01:46;;;;;;;;;;;17.90;99.90;;;;;;5013774;28;20344;-72
2022/06/15 08:04:13;;;;;;;;;;;17.90;99.90;;;;;;5030527;28;19944;-71
2022/06/15 08:06:41;;;;;;;;;;;18.10;99.90;;;;;;5032217;28;19924;-75
2022/06/15 08:09:09;;;;;;;;;;;18.20;99.90;;;;;;5043567;28;20428;-74
2022/06/15 08:11:38;;;;;;;;;;;18.30;99.90;;;;;;5006200;28;20341;-74
2022/06/15 08:14:04;;;;;;;;;;;18.50;99.90;;;;;;5011800;28;20012;-74
2022/06/15 08:16:29;;;;;;;;;;;18.60;99.90;;;;;;5005565;28;20455;-74
2022/06/15 08:18:57;;;;;;;;;;;18.70;99.90;;;;;;5031583;28;19917;-74
2022/06/15 08:21:24;;;;;;;;;;;18.70;99.90;;;;;;5015408;28;20551;-74
2022/06/15 08:23:50;;;;;;;;;;;18.80;99.90;;;;;;5014468;28;20293;-74
2022/06/15 08:26:18;;;;;;;;;;;18.80;99.90;;;;;;5012561;28;19918;-74
2022/06/15 08:28:46;;;;;;;;;;;18.90;99.90;;;;;;5014131;28;19921;-74
2022/06/15 08:31:12;;;;;;;;;;;19.10;99.90;;;;;;5046881;28;19917;-75
2022/06/15 08:33:38;;;;;;;;;;;19.10;99.90;;;;;;5006445;28;20067;-75
2022/06/15 08:36:04;;;;;;;;;;;19.30;99.90;;;;;;5001299;28;20385;-74
2022/06/15 08:38:29;;;;;;;;;;;19.30;99.90;;;;;;5030715;28;19917;-75
2022/06/15 08:40:57;;;;;;;;;;;19.30;99.90;;;;;;5011823;28;19921;-74
2022/06/15 08:43:35;;;;;;;;;;;19.50;99.90;;;;;;5045721;28;19957;-75
2022/06/15 08:46:08;;;;;;;;;;;19.50;99.90;;;;;;5022899;28;19918;-75
2022/06/15 08:49:00;;;;;;;;;;;19.50;99.90;;;;;;5025673;28;20374;-75
2022/06/15 08:51:25;;;;;;;;;;;19.50;99.90;;;;;;4994528;28;19917;-75
2022/06/15 08:53:57;;;;;;;;;;;19.70;99.90;;;;;;5046840;28;19948;-75
2022/06/15 08:56:29;;;;;;;;;;;19.80;99.90;;;;;;5046909;28;19924;-75
2022/06/15 08:59:12;;;;;;;;;;;19.70;99.90;;;;;;5026975;28;19917;-75
2022/06/15 09:01:45;;;;;;;;;;;19.80;99.90;;;;;;5047020;28;20373;-75
2022/06/15 09:04:11;;;;;;;;;;;20.00;99.90;;;;;;5026144;28;20000;-75
2022/06/15 09:06:57;;;;;;;;;;;20.00;99.90;;;;;;5030572;28;20060;-74
2022/06/15 09:09:31;;;;;;;;;;;20.10;99.90;;;;;;4998068;28;20000;-75
2022/06/15 09:15:02;;;;;;;;;;;20.30;99.90;;;;;;5029913;28;19922;-75
2022/06/15 09:17:28;;;;;;;;;;;20.40;99.90;;;;;;5014383;28;19961;-74
2022/06/15 09:19:56;;;;;;;;;;;20.40;99.90;;;;;;5029823;28;19921;-75
2022/06/15 09:22:23;;;;;;;;;;;20.50;99.90;;;;;;5013743;28;19921;-75
2022/06/15 09:25:01;;;;;;;;;;;20.60;99.90;;;;;;5041349;28;19972;-75
2022/06/15 09:27:35;;;;;;;;;;;20.50;99.90;;;;;;5005059;28;20020;-75
2022/06/15 09:30:09;;;;;;;;;;;20.70;99.90;;;;;;5028260;28;19921;-75
2022/06/15 09:32:37;;;;;;;;;;;20.80;99.90;;;;;;5011361;28;19961;-75
2022/06/15 09:35:12;;;;;;;;;;;20.80;99.90;;;;;;5012813;28;19928;-75
2022/06/15 09:37:40;;;;;;;;;;;21.10;99.90;;;;;;5010605;28;19918;-75
2022/06/15 09:40:05;;;;;;;;;;;21.10;99.90;;;;;;5043996;28;19928;-75
2022/06/15 09:42:49;;;;;;;;;;;21.10;95.70;;;;;;5009724;28;20483;-75
2022/06/15 09:45:17;;;;;;;;;;;21.10;97.10;;;;;;5043817;28;19917;-75
2022/06/15 09:47:46;;;;;;;;;;;21.30;99.90;;;;;;5045398;28;19965;-75
2022/06/15 09:50:29;;;;;;;;;;;21.40;98.30;;;;;;5044389;28;19983;-76
2022/06/15 09:52:57;;;;;;;;;;;21.50;99.50;;;;;;5027848;28;20337;-76
2022/06/15 09:55:23;;;;;;;;;;;21.50;98.20;;;;;;5039770;28;19960;-75
2022/06/15 09:57:49;;;;;;;;;;;21.60;99.90;;;;;;5013962;28;19963;-76
2022/06/15 10:00:15;;;;;;;;;;;21.60;99.90;;;;;;5027763;28;19967;-75
2022/06/15 10:02:44;;;;;;;;;;;21.70;99.10;;;;;;5042762;28;20350;-75
2022/06/15 10:05:16;;;;;;;;;;;21.80;99.90;;;;;;5011419;28;19929;-75
2022/06/15 10:07:43;;;;;;;;;;;21.80;99.90;;;;;;5005926;28;19918;-75
2022/06/15 10:10:23;;;;;;;;;;;21.60;91.50;;;;;;5005286;28;20278;-75
2022/06/15 10:12:59;;;;;;;;;;;21.80;96.10;;;;;;5041370;28;19924;-76
2022/06/15 10:15:27;;;;;;;;;;;21.90;98.90;;;;;;5023836;28;19925;-75
2022/06/15 10:17:54;;;;;;;;;;;22.00;94.50;;;;;;5013089;28;20362;-75
2022/06/15 10:20:21;;;;;;;;;;;21.80;95.20;;;;;;5046887;28;19924;-75
2022/06/15 10:22:51;;;;;;;;;;;21.80;98.30;;;;;;5016772;28;20313;-75
2022/06/15 10:25:18;;;;;;;;;;;21.40;94.10;;;;;;5042409;28;19936;-75
2022/06/15 10:27:43;;;;;;;;;;;21.40;98.40;;;;;;5019228;28;19921;-75
2022/06/15 10:30:12;;;;;;;;;;;21.40;99.70;;;;;;4993844;28;19921;-75
2022/06/15 10:33:09;;;;;;;;;;;21.50;99.20;;;;;;5010822;28;19949;-75
2022/06/15 10:35:35;;;;;;;;;;;21.60;99.90;;;;;;5030652;28;20382;-75
2022/06/15 10:38:04;;;;;;;;;;;21.80;99.90;;;;;;5009540;28;19924;-75
2022/06/15 10:40:36;;;;;;;;;;;21.90;99.90;;;;;;5028495;28;19922;-75
2022/06/15 10:43:02;;;;;;;;;;;21.80;99.40;;;;;;5026961;28;19925;-75
2022/06/15 10:45:46;;;;;;;;;;;21.50;91.10;;;;;;5043906;28;20289;-75
2022/06/15 10:48:14;;;;;;;;;;;21.70;98.80;;;;;;5033862;28;19918;-75
2022/06/15 10:50:40;;;;;;;;;;;21.90;98.50;;;;;;5007544;28;19924;-75
2022/06/15 10:53:06;;;;;;;;;;;21.80;90.90;;;;;;5043677;28;19918;-75
2022/06/15 11:04:13;;;;;;;;;;;22.10;98.50;;;;;;5012753;28;19917;-76
2022/06/15 11:06:44;;;;;;;;;;;21.90;95.60;;;;;;5006503;28;19924;-76
2022/06/15 11:09:36;;;;;;;;;;;21.70;97.20;;;;;;5042431;28;20380;-76
2022/06/15 11:12:06;;;;;;;;;;;21.50;97.80;;;;;;4993109;28;19925;-76
2022/06/15 11:14:33;;;;;;;;;;;21.20;95.60;;;;;;5008875;28;19968;-76
2022/06/15 11:20:07;;;;;;;;;;;21.40;99.90;;;;;;5007524;28;19921;-76
2022/06/15 11:22:33;;;;;;;;;;;21.40;94.00;;;;;;5026360;28;19975;-76
2022/06/15 11:25:06;;;;;;;;;;;21.20;97.70;;;;;;5041020;28;20381;-76
2022/06/15 11:27:34;;;;;;;;;;;21.10;95.60;;;;;;5027632;28;19917;-76
2022/06/15 11:30:29;;;;;;;;;;;21.40;98.30;;;;;;5043814;28;19940;-76
2022/06/15 11:33:05;;;;;;;;;;;21.30;98.40;;;;;;5021681;28;20282;-76
2022/06/15 11:35:30;;;;;;;;;;;21.10;99.50;;;;;;5018853;28;19925;-75
2022/06/15 11:38:03;;;;;;;;;;;21.20;98.70;;;;;;5012964;28;20350;-76
2022/06/15 11:40:47;;;;;;;;;;;21.40;99.90;;;;;;5013454;28;20370;-75
2022/06/15 11:43:16;;;;;;;;;;;21.50;98.40;;;;;;5032068;28;19917;-76
2022/06/15 11:45:54;;;;;;;;;;;21.60;99.90;;;;;;5038727;28;19917;-76
2022/06/15 11:48:26;;;;;;;;;;;21.60;96.90;;;;;;5036178;28;19924;-75
2022/06/15 11:50:55;;;;;;;;;;;21.70;98.60;;;;;;5031309;28;20008;-75
2022/06/15 11:53:36;;;;;;;;;;;21.60;96.70;;;;;;5029126;28;19918;-76
2022/06/15 11:56:13;;;;;;;;;;;21.70;96.80;;;;;;5048577;28;20267;-75
2022/06/15 11:58:46;;;;;;;;;;;21.70;99.40;;;;;;5032284;28;19918;-75
2022/06/15 12:01:21;;;;;;;;;;;21.70;97.80;;;;;;5031612;28;20464;-75
2022/06/15 12:03:55;;;;;;;;;;;21.80;98.10;;;;;;5030330;28;19975;-75
2022/06/15 12:06:36;;;;;;;;;;;21.60;95.30;;;;;;5031155;28;19927;-75
2022/06/15 12:09:10;;;;;;;;;;;21.80;98.30;;;;;;5028551;28;20386;-75
2022/06/15 12:14:34;;;;;;;;;;;22.00;99.20;;;;;;5013591;28;20023;-72
2022/06/15 12:17:19;;;;;;;;;;;22.00;98.00;;;;;;5028356;28;20401;-73
2022/06/15 12:19:49;;;;;;;;;;;21.90;97.70;;;;;;5020177;28;19924;-74
2022/06/15 12:22:21;;;;;;;;;;;21.60;97.80;;;;;;5002133;28;19995;-75
2022/06/15 12:24:47;;;;;;;;;;;21.40;98.80;;;;;;5012166;28;19976;-77
2022/06/15 12:27:21;;;;;;;;;;;21.30;98.10;;;;;;5031023;28;19917;-75
2022/06/15 12:29:49;;;;;;;;;;;21.40;99.30;;;;;;5047368;28;20056;-78
2022/06/15 12:34:58;;;;;;;;;;;21.50;97.00;;;;;;5011713;28;20455;-74
2022/06/15 12:37:27;;;;;;;;;;;21.50;96.30;;;;;;5031640;28;19917;-73
2022/06/15 12:40:02;;;;;;;;;;;21.70;98.30;;;;;;5013490;28;19957;-74
2022/06/15 12:42:28;;;;;;;;;;;21.70;96.30;;;;;;5040860;28;19917;-74
2022/06/15 12:45:07;;;;;;;;;;;21.60;98.20;;;;;;5008376;28;20267;-74
2022/06/15 12:47:34;;;;;;;;;;;21.60;94.00;;;;;;5013927;28;19921;-74
2022/06/15 12:50:18;;;;;;;;;;;21.50;94.90;;;;;;5028628;28;19925;-74
2022/06/15 12:53:03;;;;;;;;;;;21.40;97.20;;;;;;5029957;28;19917;-74
2022/06/15 12:55:40;;;;;;;;;;;21.40;96.80;;;;;;5031190;28;19922;-74
2022/06/15 12:58:09;;;;;;;;;;;21.40;98.40;;;;;;5030749;28;19917;-74
2022/06/15 13:00:36;;;;;;;;;;;21.40;99.00;;;;;;5046135;28;19924;-74
2022/06/15 13:03:20;;;;;;;;;;;21.40;95.70;;;;;;5012382;28;20004;-74
2022/06/15 13:05:45;;;;;;;;;;;21.40;96.30;;;;;;5043823;28;20440;-74
2022/06/15 13:08:17;;;;;;;;;;;21.50;99.10;;;;;;4997728;28;19918;-74
2022/06/15 13:10:55;;;;;;;;;;;21.40;99.30;;;;;;5029978;28;19917;-74
2022/06/15 13:13:42;;;;;;;;;;;21.40;99.10;;;;;;5046968;28;19965;-74
2022/06/15 13:16:28;;;;;;;;;;;21.30;98.50;;;;;;5029613;28;20008;-74
2022/06/15 13:18:54;;;;;;;;;;;21.40;97.00;;;;;;5011790;28;20347;-74
2022/06/15 13:21:20;;;;;;;;;;;21.50;99.40;;;;;;4996529;28;19927;-74
2022/06/15 13:23:59;;;;;;;;;;;21.60;99.90;;;;;;5030423;28;20369;-74
2022/06/15 13:26:36;;;;;;;;;;;21.50;98.70;;;;;;5046157;28;19921;-74
2022/06/15 13:29:02;;;;;;;;;;;21.50;99.90;;;;;;5045543;28;19918;-74
2022/06/15 13:31:44;;;;;;;;;;;21.60;99.90;;;;;;5045721;28;19921;-74
2022/06/15 13:34:11;;;;;;;;;;;21.60;99.90;;;;;;5044110;28;19932;-74
2022/06/15 13:36:37;;;;;;;;;;;21.50;99.60;;;;;;5045583;28;19921;-74
2022/06/15 13:39:21;;;;;;;;;;;21.40;99.90;;;;;;5014010;28;19924;-74
2022/06/15 13:41:47;;;;;;;;;;;21.20;98.70;;;;;;5045800;28;20012;-74
2022/06/15 13:44:13;;;;;;;;;;;21.30;99.90;;;;;;5027682;28;19925;-74
2022/06/15 13:46:41;;;;;;;;;;;21.20;98.10;;;;;;5030399;28;20281;-74
2022/06/15 13:49:14;;;;;;;;;;;21.10;99.40;;;;;;4995403;28;19927;-73
2022/06/15 13:51:44;;;;;;;;;;;21.20;99.90;;;;;;5045565;28;19929;-73
2022/06/15 13:54:25;;;;;;;;;;;21.20;99.90;;;;;;5013193;28;19921;-74
2022/06/15 13:57:04;;;;;;;;;;;20.90;99.90;;;;;;5040443;28;20344;-74
2022/06/15 13:59:34;;;;;;;;;;;20.90;99.90;;;;;;5044505;28;20335;-74
2022/06/15 14:02:09;;;;;;;;;;;20.80;99.90;;;;;;5028109;28;19917;-74
2022/06/15 14:04:38;;;;;;;;;;;20.80;99.90;;;;;;5008645;28;20289;-72
2022/06/15 14:07:07;;;;;;;;;;;20.90;99.90;;;;;;5045274;28;20287;-75
2022/06/15 14:09:48;;;;;;;;;;;20.90;99.90;;;;;;5043722;28;20374;-74
2022/06/15 14:12:32;;;;;;;;;;;21.00;99.90;;;;;;5021703;28;19917;-74
2022/06/15 14:14:57;;;;;;;;;;;20.90;99.50;;;;;;5029065;28;19988;-75
2022/06/15 14:17:32;;;;;;;;;;;20.80;99.90;;;;;;5029598;28;20369;-75
2022/06/15 14:20:00;;;;;;;;;;;20.90;99.90;;;;;;5023880;28;19925;-74
2022/06/15 14:22:26;;;;;;;;;;;20.80;99.90;;;;;;5045282;28;19917;-75
2022/06/15 14:25:02;;;;;;;;;;;20.80;99.90;;;;;;5029001;28;19917;-74
2022/06/15 14:27:30;;;;;;;;;;;20.80;99.90;;;;;;5029591;28;19978;-75
2022/06/15 14:29:55;;;;;;;;;;;20.80;99.90;;;;;;5029287;28;20373;-74
2022/06/15 14:32:34;;;;;;;;;;;20.90;99.20;;;;;;5012413;28;19961;-76
2022/06/15 14:35:03;;;;;;;;;;;20.70;99.30;;;;;;5045208;28;19926;-75
2022/06/15 14:37:28;;;;;;;;;;;20.50;99.90;;;;;;5045923;28;19924;-74
2022/06/15 14:39:55;;;;;;;;;;;20.50;99.70;;;;;;5028624;28;19925;-75
2022/06/15 14:42:22;;;;;;;;;;;20.40;99.90;;;;;;5035685;28;19925;-75
2022/06/15 14:44:49;;;;;;;;;;;20.50;99.90;;;;;;5043211;28;19986;-75
2022/06/15 14:47:16;;;;;;;;;;;20.50;99.90;;;;;;5039978;28;19917;-75
2022/06/15 14:49:46;;;;;;;;;;;20.50;99.30;;;;;;5008650;28;19917;-75
2022/06/15 14:52:11;;;;;;;;;;;20.50;98.50;;;;;;5012099;28;19924;-75